Divinopolis, Brazil
Current Conditions -  °F | °C
As of 7:17 PM on Sunday 23 Nov 2014 (Local Time) from SBPR Reporting Station
Light Rain Light Rain  
Wind Chill: 68°   Ceiling: 8000
Heat Index: 68°   Visibility: 3mi
Dew Point: 66°   Wind: 0mph
Humidity: 94%   Direction: NA
Pressure: 30.03"   Gusts: NA
Location:  20.15°S, 44.9°W
Report Text: SBPR 232117Z 00000KT 5000 -RA FEW006 SCT020 BKN080 20/19 Q1017
Loading
Personal Weather Stations






























Interactive Weather Map New forecast layout! Learn more

10-Day Weather Forecast

Advertisements
Track Severe Weather on mobile